sensor_id;sensor_type;location;lat;lon;timestamp;pressure;altitude;pressure_sealevel;temperature
13570;BMP180;6856;51.460;7.158;2023-05-07T00:01:55;100496.00;;;20.80
13570;BMP180;6856;51.460;7.158;2023-05-07T00:04:29;100496.00;;;20.80
13570;BMP180;6856;51.460;7.158;2023-05-07T00:07:09;100499.00;;;20.70
13570;BMP180;6856;51.460;7.158;2023-05-07T00:09:43;100499.00;;;20.70
13570;BMP180;6856;51.460;7.158;2023-05-07T00:12:18;100498.00;;;20.70
13570;BMP180;6856;51.460;7.158;2023-05-07T00:14:52;100506.00;;;20.70
13570;BMP180;6856;51.460;7.158;2023-05-07T00:17:26;100500.00;;;20.70
13570;BMP180;6856;51.460;7.158;2023-05-07T00:20:00;100496.00;;;20.60
13570;BMP180;6856;51.460;7.158;2023-05-07T00:22:34;100500.00;;;20.60
13570;BMP180;6856;51.460;7.158;2023-05-07T00:25:09;100495.00;;;20.60
13570;BMP180;6856;51.460;7.158;2023-05-07T00:27:45;100495.00;;;20.60
13570;BMP180;6856;51.460;7.158;2023-05-07T00:30:19;100497.00;;;20.60
13570;BMP180;6856;51.460;7.158;2023-05-07T00:32:52;100495.00;;;20.50
13570;BMP180;6856;51.460;7.158;2023-05-07T00:35:27;100488.00;;;20.50
13570;BMP180;6856;51.460;7.158;2023-05-07T00:38:01;100490.00;;;20.50
13570;BMP180;6856;51.460;7.158;2023-05-07T00:40:39;100489.00;;;20.50
13570;BMP180;6856;51.460;7.158;2023-05-07T00:43:14;100493.00;;;20.50
13570;BMP180;6856;51.460;7.158;2023-05-07T00:45:50;100478.00;;;20.50
13570;BMP180;6856;51.460;7.158;2023-05-07T00:48:25;100475.00;;;20.50
13570;BMP180;6856;51.460;7.158;2023-05-07T00:50:59;100468.00;;;20.50
13570;BMP180;6856;51.460;7.158;2023-05-07T00:53:34;100468.00;;;20.50
13570;BMP180;6856;51.460;7.158;2023-05-07T00:56:08;100469.00;;;20.50
13570;BMP180;6856;51.460;7.158;2023-05-07T00:58:43;100466.00;;;20.50
13570;BMP180;6856;51.460;7.158;2023-05-07T01:01:18;100467.00;;;20.50
13570;BMP180;6856;51.460;7.158;2023-05-07T01:03:52;100470.00;;;20.40
13570;BMP180;6856;51.460;7.158;2023-05-07T01:06:28;100471.00;;;20.40
13570;BMP180;6856;51.460;7.158;2023-05-07T01:09:06;100475.00;;;20.40
13570;BMP180;6856;51.460;7.158;2023-05-07T01:11:43;100476.00;;;20.40
13570;BMP180;6856;51.460;7.158;2023-05-07T01:14:19;100470.00;;;20.40
13570;BMP180;6856;51.460;7.158;2023-05-07T01:16:54;100467.00;;;20.40
13570;BMP180;6856;51.460;7.158;2023-05-07T01:19:29;100466.00;;;20.30
13570;BMP180;6856;51.460;7.158;2023-05-07T01:22:09;100467.00;;;20.30
13570;BMP180;6856;51.460;7.158;2023-05-07T01:24:45;100478.00;;;20.30
13570;BMP180;6856;51.460;7.158;2023-05-07T01:27:18;100478.00;;;20.30
13570;BMP180;6856;51.460;7.158;2023-05-07T01:29:53;100476.00;;;20.30
13570;BMP180;6856;51.460;7.158;2023-05-07T01:32:33;100472.00;;;20.20
13570;BMP180;6856;51.460;7.158;2023-05-07T01:35:13;100457.00;;;20.20
13570;BMP180;6856;51.460;7.158;2023-05-07T01:37:50;100474.00;;;20.20
13570;BMP180;6856;51.460;7.158;2023-05-07T01:40:27;100474.00;;;20.20
13570;BMP180;6856;51.460;7.158;2023-05-07T01:43:02;100475.00;;;20.20
13570;BMP180;6856;51.460;7.158;2023-05-07T01:45:36;100476.00;;;20.20
13570;BMP180;6856;51.460;7.158;2023-05-07T01:48:11;100472.00;;;20.20
13570;BMP180;6856;51.460;7.158;2023-05-07T01:50:46;100470.00;;;20.20
13570;BMP180;6856;51.460;7.158;2023-05-07T01:53:20;100469.00;;;20.20
13570;BMP180;6856;51.460;7.158;2023-05-07T01:55:56;100464.00;;;20.20
13570;BMP180;6856;51.460;7.158;2023-05-07T01:58:30;100467.00;;;20.20
13570;BMP180;6856;51.460;7.158;2023-05-07T02:01:04;100468.00;;;20.10
13570;BMP180;6856;51.460;7.158;2023-05-07T02:03:38;100456.00;;;20.10
13570;BMP180;6856;51.460;7.158;2023-05-07T02:06:13;100465.00;;;20.10
13570;BMP180;6856;51.460;7.158;2023-05-07T02:08:47;100459.00;;;20.10
13570;BMP180;6856;51.460;7.158;2023-05-07T02:11:23;100462.00;;;20.10
13570;BMP180;6856;51.460;7.158;2023-05-07T02:13:57;100463.00;;;20.10
13570;BMP180;6856;51.460;7.158;2023-05-07T02:16:31;100463.00;;;20.10
13570;BMP180;6856;51.460;7.158;2023-05-07T02:19:05;100463.00;;;20.10
13570;BMP180;6856;51.460;7.158;2023-05-07T02:21:39;100453.00;;;20.00
13570;BMP180;6856;51.460;7.158;2023-05-07T02:24:13;100467.00;;;20.00
13570;BMP180;6856;51.460;7.158;2023-05-07T02:26:49;100449.00;;;20.00
13570;BMP180;6856;51.460;7.158;2023-05-07T02:29:22;100454.00;;;20.00
13570;BMP180;6856;51.460;7.158;2023-05-07T02:31:57;100460.00;;;20.00
13570;BMP180;6856;51.460;7.158;2023-05-07T02:34:31;100459.00;;;20.00
13570;BMP180;6856;51.460;7.158;2023-05-07T02:37:05;100459.00;;;20.00
13570;BMP180;6856;51.460;7.158;2023-05-07T02:39:38;100455.00;;;20.00
13570;BMP180;6856;51.460;7.158;2023-05-07T02:42:14;100455.00;;;20.00
13570;BMP180;6856;51.460;7.158;2023-05-07T02:44:48;100459.00;;;19.90
13570;BMP180;6856;51.460;7.158;2023-05-07T02:47:22;100459.00;;;19.90
13570;BMP180;6856;51.460;7.158;2023-05-07T02:49:56;100456.00;;;19.90
13570;BMP180;6856;51.460;7.158;2023-05-07T02:52:30;100447.00;;;19.90
13570;BMP180;6856;51.460;7.158;2023-05-07T02:55:05;100450.00;;;19.90
13570;BMP180;6856;51.460;7.158;2023-05-07T02:57:40;100454.00;;;19.80
13570;BMP180;6856;51.460;7.158;2023-05-07T03:00:18;100453.00;;;19.80
13570;BMP180;6856;51.460;7.158;2023-05-07T03:02:52;100452.00;;;19.80
13570;BMP180;6856;51.460;7.158;2023-05-07T03:05:26;100453.00;;;19.80
13570;BMP180;6856;51.460;7.158;2023-05-07T03:08:00;100452.00;;;19.80
13570;BMP180;6856;51.460;7.158;2023-05-07T03:10:36;100455.00;;;19.80
13570;BMP180;6856;51.460;7.158;2023-05-07T03:13:12;100459.00;;;19.70
13570;BMP180;6856;51.460;7.158;2023-05-07T03:15:45;100456.00;;;19.70
13570;BMP180;6856;51.460;7.158;2023-05-07T03:18:20;100464.00;;;19.70
13570;BMP180;6856;51.460;7.158;2023-05-07T03:20:53;100459.00;;;19.70
13570;BMP180;6856;51.460;7.158;2023-05-07T03:23:27;100464.00;;;19.70
13570;BMP180;6856;51.460;7.158;2023-05-07T03:26:01;100458.00;;;19.70
13570;BMP180;6856;51.460;7.158;2023-05-07T03:28:37;100455.00;;;19.70
13570;BMP180;6856;51.460;7.158;2023-05-07T03:31:12;100462.00;;;19.60
13570;BMP180;6856;51.460;7.158;2023-05-07T03:33:52;100463.00;;;19.60
13570;BMP180;6856;51.460;7.158;2023-05-07T03:36:26;100459.00;;;19.60
13570;BMP180;6856;51.460;7.158;2023-05-07T03:39:01;100459.00;;;19.60
13570;BMP180;6856;51.460;7.158;2023-05-07T03:41:34;100462.00;;;19.60
13570;BMP180;6856;51.460;7.158;2023-05-07T03:44:10;100459.00;;;19.60
13570;BMP180;6856;51.460;7.158;2023-05-07T03:46:44;100452.00;;;19.60
13570;BMP180;6856;51.460;7.158;2023-05-07T03:49:18;100459.00;;;19.50
13570;BMP180;6856;51.460;7.158;2023-05-07T03:51:53;100463.00;;;19.50
13570;BMP180;6856;51.460;7.158;2023-05-07T03:54:28;100447.00;;;19.50
13570;BMP180;6856;51.460;7.158;2023-05-07T03:57:02;100465.00;;;19.50
13570;BMP180;6856;51.460;7.158;2023-05-07T03:59:37;100457.00;;;19.50
13570;BMP180;6856;51.460;7.158;2023-05-07T04:02:11;100460.00;;;19.40
13570;BMP180;6856;51.460;7.158;2023-05-07T04:04:45;100458.00;;;19.40
13570;BMP180;6856;51.460;7.158;2023-05-07T04:07:19;100442.00;;;19.40
13570;BMP180;6856;51.460;7.158;2023-05-07T04:09:55;100460.00;;;19.40
13570;BMP180;6856;51.460;7.158;2023-05-07T04:12:29;100461.00;;;19.40
13570;BMP180;6856;51.460;7.158;2023-05-07T04:15:07;100460.00;;;19.40
13570;BMP180;6856;51.460;7.158;2023-05-07T04:17:47;100475.00;;;19.40
13570;BMP180;6856;51.460;7.158;2023-05-07T04:20:21;100465.00;;;19.40
13570;BMP180;6856;51.460;7.158;2023-05-07T04:22:55;100468.00;;;19.30
13570;BMP180;6856;51.460;7.158;2023-05-07T04:25:29;100469.00;;;19.30
13570;BMP180;6856;51.460;7.158;2023-05-07T04:28:03;100460.00;;;19.30
13570;BMP180;6856;51.460;7.158;2023-05-07T04:30:39;100468.00;;;19.30
13570;BMP180;6856;51.460;7.158;2023-05-07T04:33:14;100477.00;;;19.30
13570;BMP180;6856;51.460;7.158;2023-05-07T04:35:48;100472.00;;;19.30
13570;BMP180;6856;51.460;7.158;2023-05-07T04:38:23;100479.00;;;19.30
13570;BMP180;6856;51.460;7.158;2023-05-07T04:41:02;100478.00;;;19.20
13570;BMP180;6856;51.460;7.158;2023-05-07T04:43:37;100473.00;;;19.20
13570;BMP180;6856;51.460;7.158;2023-05-07T04:46:12;100472.00;;;19.20
13570;BMP180;6856;51.460;7.158;2023-05-07T04:48:46;100476.00;;;19.20
13570;BMP180;6856;51.460;7.158;2023-05-07T04:51:20;100486.00;;;19.20
13570;BMP180;6856;51.460;7.158;2023-05-07T04:53:54;100482.00;;;19.20
13570;BMP180;6856;51.460;7.158;2023-05-07T04:56:28;100488.00;;;19.20
13570;BMP180;6856;51.460;7.158;2023-05-07T04:59:02;100485.00;;;19.20
13570;BMP180;6856;51.460;7.158;2023-05-07T05:01:37;100486.00;;;19.20
13570;BMP180;6856;51.460;7.158;2023-05-07T05:04:12;100487.00;;;19.20
13570;BMP180;6856;51.460;7.158;2023-05-07T05:06:46;100491.00;;;19.20
13570;BMP180;6856;51.460;7.158;2023-05-07T05:09:20;100489.00;;;19.20
13570;BMP180;6856;51.460;7.158;2023-05-07T05:11:54;100496.00;;;19.20
13570;BMP180;6856;51.460;7.158;2023-05-07T05:14:29;100494.00;;;19.20
13570;BMP180;6856;51.460;7.158;2023-05-07T05:17:05;100494.00;;;19.20
13570;BMP180;6856;51.460;7.158;2023-05-07T05:19:39;100491.00;;;19.20
13570;BMP180;6856;51.460;7.158;2023-05-07T05:22:13;100490.00;;;19.20
13570;BMP180;6856;51.460;7.158;2023-05-07T05:24:47;100487.00;;;19.30
13570;BMP180;6856;51.460;7.158;2023-05-07T05:27:21;100499.00;;;19.30
13570;BMP180;6856;51.460;7.158;2023-05-07T05:29:55;100499.00;;;19.30
13570;BMP180;6856;51.460;7.158;2023-05-07T05:32:31;100499.00;;;19.30
13570;BMP180;6856;51.460;7.158;2023-05-07T05:35:06;100501.00;;;19.30
13570;BMP180;6856;51.460;7.158;2023-05-07T05:37:41;100499.00;;;19.30
13570;BMP180;6856;51.460;7.158;2023-05-07T05:40:15;100498.00;;;19.30
13570;BMP180;6856;51.460;7.158;2023-05-07T05:42:48;100498.00;;;19.30
13570;BMP180;6856;51.460;7.158;2023-05-07T05:45:22;100485.00;;;19.40
13570;BMP180;6856;51.460;7.158;2023-05-07T05:47:58;100495.00;;;19.40
13570;BMP180;6856;51.460;7.158;2023-05-07T05:50:32;100500.00;;;19.40
13570;BMP180;6856;51.460;7.158;2023-05-07T05:53:08;100499.00;;;19.50
13570;BMP180;6856;51.460;7.158;2023-05-07T05:55:42;100506.00;;;19.50
13570;BMP180;6856;51.460;7.158;2023-05-07T05:58:16;100502.00;;;19.50
13570;BMP180;6856;51.460;7.158;2023-05-07T06:00:50;100499.00;;;19.60
13570;BMP180;6856;51.460;7.158;2023-05-07T06:03:26;100496.00;;;19.60
13570;BMP180;6856;51.460;7.158;2023-05-07T06:06:01;100502.00;;;19.60
13570;BMP180;6856;51.460;7.158;2023-05-07T06:08:34;100510.00;;;19.70
13570;BMP180;6856;51.460;7.158;2023-05-07T06:11:08;100506.00;;;19.70
13570;BMP180;6856;51.460;7.158;2023-05-07T06:13:42;100509.00;;;19.70
13570;BMP180;6856;51.460;7.158;2023-05-07T06:16:16;100507.00;;;19.80
13570;BMP180;6856;51.460;7.158;2023-05-07T06:18:51;100507.00;;;19.90
13570;BMP180;6856;51.460;7.158;2023-05-07T06:21:25;100511.00;;;19.90
13570;BMP180;6856;51.460;7.158;2023-05-07T06:23:59;100512.00;;;20.00
13570;BMP180;6856;51.460;7.158;2023-05-07T06:26:33;100510.00;;;20.00
13570;BMP180;6856;51.460;7.158;2023-05-07T06:29:07;100515.00;;;20.00
13570;BMP180;6856;51.460;7.158;2023-05-07T06:31:41;100524.00;;;20.10
13570;BMP180;6856;51.460;7.158;2023-05-07T06:34:17;100526.00;;;20.10
13570;BMP180;6856;51.460;7.158;2023-05-07T06:36:50;100532.00;;;20.20
13570;BMP180;6856;51.460;7.158;2023-05-07T06:39:24;100516.00;;;20.20
13570;BMP180;6856;51.460;7.158;2023-05-07T06:41:58;100513.00;;;20.30
13570;BMP180;6856;51.460;7.158;2023-05-07T06:44:32;100535.00;;;20.30
13570;BMP180;6856;51.460;7.158;2023-05-07T06:47:07;100536.00;;;20.30
13570;BMP180;6856;51.460;7.158;2023-05-07T06:49:43;100540.00;;;20.40
13570;BMP180;6856;51.460;7.158;2023-05-07T06:52:16;100537.00;;;20.40
13570;BMP180;6856;51.460;7.158;2023-05-07T06:54:50;100530.00;;;20.50
13570;BMP180;6856;51.460;7.158;2023-05-07T06:57:24;100532.00;;;20.50
13570;BMP180;6856;51.460;7.158;2023-05-07T06:59:58;100530.00;;;20.50
13570;BMP180;6856;51.460;7.158;2023-05-07T07:02:31;100520.00;;;20.60
13570;BMP180;6856;51.460;7.158;2023-05-07T07:05:09;100528.00;;;20.60
13570;BMP180;6856;51.460;7.158;2023-05-07T07:07:43;100529.00;;;20.60
13570;BMP180;6856;51.460;7.158;2023-05-07T07:10:17;100520.00;;;20.70
13570;BMP180;6856;51.460;7.158;2023-05-07T07:12:51;100530.00;;;20.70
13570;BMP180;6856;51.460;7.158;2023-05-07T07:15:26;100531.00;;;20.70
13570;BMP180;6856;51.460;7.158;2023-05-07T07:18:01;100523.00;;;20.80
13570;BMP180;6856;51.460;7.158;2023-05-07T07:20:36;100527.00;;;20.80
13570;BMP180;6856;51.460;7.158;2023-05-07T07:23:10;100523.00;;;20.80
13570;BMP180;6856;51.460;7.158;2023-05-07T07:25:44;100525.00;;;20.80
13570;BMP180;6856;51.460;7.158;2023-05-07T07:28:20;100531.00;;;20.90
13570;BMP180;6856;51.460;7.158;2023-05-07T07:30:54;100530.00;;;20.90
13570;BMP180;6856;51.460;7.158;2023-05-07T07:33:28;100542.00;;;20.90
13570;BMP180;6856;51.460;7.158;2023-05-07T07:36:06;100532.00;;;21.00
13570;BMP180;6856;51.460;7.158;2023-05-07T07:38:40;100543.00;;;21.00
13570;BMP180;6856;51.460;7.158;2023-05-07T07:41:14;100540.00;;;21.00
13570;BMP180;6856;51.460;7.158;2023-05-07T07:43:48;100541.00;;;21.10
13570;BMP180;6856;51.460;7.158;2023-05-07T07:46:22;100535.00;;;21.20
13570;BMP180;6856;51.460;7.158;2023-05-07T07:48:56;100533.00;;;21.20
13570;BMP180;6856;51.460;7.158;2023-05-07T07:51:35;100525.00;;;21.30
13570;BMP180;6856;51.460;7.158;2023-05-07T07:54:09;100537.00;;;21.40
13570;BMP180;6856;51.460;7.158;2023-05-07T07:56:43;100550.00;;;21.40
13570;BMP180;6856;51.460;7.158;2023-05-07T07:59:16;100554.00;;;21.50
13570;BMP180;6856;51.460;7.158;2023-05-07T08:01:51;100552.00;;;21.50
13570;BMP180;6856;51.460;7.158;2023-05-07T08:04:29;100547.00;;;21.60
13570;BMP180;6856;51.460;7.158;2023-05-07T08:07:07;100557.00;;;21.60
13570;BMP180;6856;51.460;7.158;2023-05-07T08:09:41;100556.00;;;21.70
13570;BMP180;6856;51.460;7.158;2023-05-07T08:12:15;100555.00;;;21.70
13570;BMP180;6856;51.460;7.158;2023-05-07T08:14:48;100561.00;;;21.80
13570;BMP180;6856;51.460;7.158;2023-05-07T08:17:22;100563.00;;;21.80
13570;BMP180;6856;51.460;7.158;2023-05-07T08:19:56;100552.00;;;21.80
13570;BMP180;6856;51.460;7.158;2023-05-07T08:22:31;100568.00;;;21.90
13570;BMP180;6856;51.460;7.158;2023-05-07T08:25:06;100565.00;;;21.90
13570;BMP180;6856;51.460;7.158;2023-05-07T08:27:40;100555.00;;;22.00
13570;BMP180;6856;51.460;7.158;2023-05-07T08:30:14;100568.00;;;22.10
13570;BMP180;6856;51.460;7.158;2023-05-07T08:32:49;100562.00;;;22.10
13570;BMP180;6856;51.460;7.158;2023-05-07T08:35:23;100565.00;;;22.20
13570;BMP180;6856;51.460;7.158;2023-05-07T08:37:59;100570.00;;;22.30
13570;BMP180;6856;51.460;7.158;2023-05-07T08:40:37;100570.00;;;22.30
13570;BMP180;6856;51.460;7.158;2023-05-07T08:43:13;100564.00;;;22.40
13570;BMP180;6856;51.460;7.158;2023-05-07T08:45:53;100563.00;;;22.50
13570;BMP180;6856;51.460;7.158;2023-05-07T08:48:30;100562.00;;;22.50
13570;BMP180;6856;51.460;7.158;2023-05-07T08:51:06;100564.00;;;22.60
13570;BMP180;6856;51.460;7.158;2023-05-07T08:53:43;100570.00;;;22.80
13570;BMP180;6856;51.460;7.158;2023-05-07T08:56:17;100562.00;;;22.90
13570;BMP180;6856;51.460;7.158;2023-05-07T08:58:53;100567.00;;;22.90
13570;BMP180;6856;51.460;7.158;2023-05-07T09:01:30;100568.00;;;23.00
13570;BMP180;6856;51.460;7.158;2023-05-07T09:04:04;100568.00;;;23.10
13570;BMP180;6856;51.460;7.158;2023-05-07T09:06:39;100554.00;;;23.20
13570;BMP180;6856;51.460;7.158;2023-05-07T09:09:18;100557.00;;;23.20
13570;BMP180;6856;51.460;7.158;2023-05-07T09:11:57;100557.00;;;23.30
13570;BMP180;6856;51.460;7.158;2023-05-07T09:14:32;100564.00;;;23.40
13570;BMP180;6856;51.460;7.158;2023-05-07T09:17:07;100561.00;;;23.40
13570;BMP180;6856;51.460;7.158;2023-05-07T09:19:44;100570.00;;;23.50
13570;BMP180;6856;51.460;7.158;2023-05-07T09:22:20;100564.00;;;23.60
13570;BMP180;6856;51.460;7.158;2023-05-07T09:24:55;100559.00;;;23.60
13570;BMP180;6856;51.460;7.158;2023-05-07T09:27:30;100559.00;;;23.70
13570;BMP180;6856;51.460;7.158;2023-05-07T09:30:06;100565.00;;;23.80
13570;BMP180;6856;51.460;7.158;2023-05-07T09:32:40;100558.00;;;23.90
13570;BMP180;6856;51.460;7.158;2023-05-07T09:35:17;100566.00;;;24.00
13570;BMP180;6856;51.460;7.158;2023-05-07T09:37:55;100565.00;;;24.10
13570;BMP180;6856;51.460;7.158;2023-05-07T09:40:31;100564.00;;;24.20
13570;BMP180;6856;51.460;7.158;2023-05-07T09:43:13;100564.00;;;24.40
13570;BMP180;6856;51.460;7.158;2023-05-07T09:45:48;100571.00;;;24.50
13570;BMP180;6856;51.460;7.158;2023-05-07T09:48:25;100579.00;;;24.60
13570;BMP180;6856;51.460;7.158;2023-05-07T09:51:02;100562.00;;;24.70
13570;BMP180;6856;51.460;7.158;2023-05-07T09:53:40;100569.00;;;24.80
13570;BMP180;6856;51.460;7.158;2023-05-07T09:56:18;100568.00;;;24.90
13570;BMP180;6856;51.460;7.158;2023-05-07T09:58:56;100566.00;;;25.00
13570;BMP180;6856;51.460;7.158;2023-05-07T10:01:31;100564.00;;;25.00
13570;BMP180;6856;51.460;7.158;2023-05-07T10:04:07;100567.00;;;25.10
13570;BMP180;6856;51.460;7.158;2023-05-07T10:06:43;100570.00;;;25.10
13570;BMP180;6856;51.460;7.158;2023-05-07T10:09:18;100562.00;;;25.20
13570;BMP180;6856;51.460;7.158;2023-05-07T10:11:54;100559.00;;;25.20
13570;BMP180;6856;51.460;7.158;2023-05-07T10:14:29;100563.00;;;25.30
13570;BMP180;6856;51.460;7.158;2023-05-07T10:17:03;100560.00;;;25.40
13570;BMP180;6856;51.460;7.158;2023-05-07T10:19:38;100560.00;;;25.40
13570;BMP180;6856;51.460;7.158;2023-05-07T10:22:15;100568.00;;;25.50
13570;BMP180;6856;51.460;7.158;2023-05-07T10:24:53;100570.00;;;25.60
13570;BMP180;6856;51.460;7.158;2023-05-07T10:27:30;100560.00;;;25.70
13570;BMP180;6856;51.460;7.158;2023-05-07T10:30:17;100561.00;;;25.70
13570;BMP180;6856;51.460;7.158;2023-05-07T10:33:00;100564.00;;;25.80
13570;BMP180;6856;51.460;7.158;2023-05-07T10:35:41;100558.00;;;25.80
13570;BMP180;6856;51.460;7.158;2023-05-07T10:38:16;100560.00;;;25.90
13570;BMP180;6856;51.460;7.158;2023-05-07T10:40:50;100567.00;;;25.90
13570;BMP180;6856;51.460;7.158;2023-05-07T10:43:39;100563.00;;;26.00
13570;BMP180;6856;51.460;7.158;2023-05-07T10:46:17;100560.00;;;26.00
13570;BMP180;6856;51.460;7.158;2023-05-07T10:49:12;100557.00;;;26.10
13570;BMP180;6856;51.460;7.158;2023-05-07T10:52:13;100564.00;;;26.20
13570;BMP180;6856;51.460;7.158;2023-05-07T10:55:20;100562.00;;;26.40
13570;BMP180;6856;51.460;7.158;2023-05-07T10:58:22;100557.00;;;26.60
13570;BMP180;6856;51.460;7.158;2023-05-07T11:01:05;100553.00;;;26.70
13570;BMP180;6856;51.460;7.158;2023-05-07T11:04:12;100558.00;;;26.80
13570;BMP180;6856;51.460;7.158;2023-05-07T11:07:29;100552.00;;;26.90
13570;BMP180;6856;51.460;7.158;2023-05-07T11:10:05;100559.00;;;27.00
13570;BMP180;6856;51.460;7.158;2023-05-07T11:12:55;100554.00;;;27.10
13570;BMP180;6856;51.460;7.158;2023-05-07T11:15:50;100553.00;;;27.20
13570;BMP180;6856;51.460;7.158;2023-05-07T11:18:47;100553.00;;;27.30
13570;BMP180;6856;51.460;7.158;2023-05-07T11:21:33;100563.00;;;27.40
13570;BMP180;6856;51.460;7.158;2023-05-07T11:24:08;100566.00;;;27.40
13570;BMP180;6856;51.460;7.158;2023-05-07T11:26:47;100569.00;;;27.50
13570;BMP180;6856;51.460;7.158;2023-05-07T11:29:21;100555.00;;;27.50
13570;BMP180;6856;51.460;7.158;2023-05-07T11:31:55;100562.00;;;27.60
13570;BMP180;6856;51.460;7.158;2023-05-07T11:34:32;100566.00;;;27.60
13570;BMP180;6856;51.460;7.158;2023-05-07T11:37:06;100568.00;;;27.70
13570;BMP180;6856;51.460;7.158;2023-05-07T11:39:40;100562.00;;;27.60
13570;BMP180;6856;51.460;7.158;2023-05-07T11:42:27;100561.00;;;27.60
13570;BMP180;6856;51.460;7.158;2023-05-07T11:45:02;100564.00;;;27.60
13570;BMP180;6856;51.460;7.158;2023-05-07T11:47:36;100563.00;;;27.60
13570;BMP180;6856;51.460;7.158;2023-05-07T11:50:11;100563.00;;;27.60
13570;BMP180;6856;51.460;7.158;2023-05-07T11:52:50;100570.00;;;27.60
13570;BMP180;6856;51.460;7.158;2023-05-07T11:55:52;100556.00;;;27.50
13570;BMP180;6856;51.460;7.158;2023-05-07T11:58:26;100564.00;;;27.50
13570;BMP180;6856;51.460;7.158;2023-05-07T12:01:00;100560.00;;;27.50
13570;BMP180;6856;51.460;7.158;2023-05-07T12:03:34;100564.00;;;27.50
13570;BMP180;6856;51.460;7.158;2023-05-07T12:06:10;100561.00;;;27.50
13570;BMP180;6856;51.460;7.158;2023-05-07T12:08:46;100573.00;;;27.50
13570;BMP180;6856;51.460;7.158;2023-05-07T12:11:24;100574.00;;;27.40
13570;BMP180;6856;51.460;7.158;2023-05-07T12:13:58;100569.00;;;27.40
13570;BMP180;6856;51.460;7.158;2023-05-07T12:16:32;100571.00;;;27.40
13570;BMP180;6856;51.460;7.158;2023-05-07T12:19:06;100578.00;;;27.40
13570;BMP180;6856;51.460;7.158;2023-05-07T12:21:43;100573.00;;;27.40
13570;BMP180;6856;51.460;7.158;2023-05-07T12:24:18;100574.00;;;27.40
13570;BMP180;6856;51.460;7.158;2023-05-07T12:26:53;100573.00;;;27.40
13570;BMP180;6856;51.460;7.158;2023-05-07T12:29:27;100577.00;;;27.40
13570;BMP180;6856;51.460;7.158;2023-05-07T12:32:01;100576.00;;;27.40
13570;BMP180;6856;51.460;7.158;2023-05-07T12:34:39;100580.00;;;27.40
13570;BMP180;6856;51.460;7.158;2023-05-07T12:37:23;100580.00;;;27.30
13570;BMP180;6856;51.460;7.158;2023-05-07T12:40:08;100579.00;;;27.30
13570;BMP180;6856;51.460;7.158;2023-05-07T12:42:42;100582.00;;;27.30
13570;BMP180;6856;51.460;7.158;2023-05-07T12:45:17;100590.00;;;27.30
13570;BMP180;6856;51.460;7.158;2023-05-07T12:47:51;100593.00;;;27.20
13570;BMP180;6856;51.460;7.158;2023-05-07T12:50:25;100593.00;;;27.20
13570;BMP180;6856;51.460;7.158;2023-05-07T12:53:02;100590.00;;;27.20
13570;BMP180;6856;51.460;7.158;2023-05-07T12:55:42;100592.00;;;27.20
13570;BMP180;6856;51.460;7.158;2023-05-07T12:58:19;100593.00;;;27.10
13570;BMP180;6856;51.460;7.158;2023-05-07T13:00:55;100597.00;;;27.10
13570;BMP180;6856;51.460;7.158;2023-05-07T13:03:34;100596.00;;;27.00
13570;BMP180;6856;51.460;7.158;2023-05-07T13:06:09;100597.00;;;27.00
13570;BMP180;6856;51.460;7.158;2023-05-07T13:08:53;100604.00;;;27.00
13570;BMP180;6856;51.460;7.158;2023-05-07T13:11:26;100593.00;;;26.90
13570;BMP180;6856;51.460;7.158;2023-05-07T13:14:00;100607.00;;;26.90
13570;BMP180;6856;51.460;7.158;2023-05-07T13:16:34;100601.00;;;26.90
13570;BMP180;6856;51.460;7.158;2023-05-07T13:19:08;100594.00;;;26.80
13570;BMP180;6856;51.460;7.158;2023-05-07T13:21:42;100603.00;;;26.80
13570;BMP180;6856;51.460;7.158;2023-05-07T13:24:18;100605.00;;;26.70
13570;BMP180;6856;51.460;7.158;2023-05-07T13:26:51;100605.00;;;26.70
13570;BMP180;6856;51.460;7.158;2023-05-07T13:29:25;100605.00;;;26.60
13570;BMP180;6856;51.460;7.158;2023-05-07T13:32:02;100608.00;;;26.60
13570;BMP180;6856;51.460;7.158;2023-05-07T13:34:37;100605.00;;;26.60
13570;BMP180;6856;51.460;7.158;2023-05-07T13:37:10;100609.00;;;26.50
13570;BMP180;6856;51.460;7.158;2023-05-07T13:39:46;100608.00;;;26.50
13570;BMP180;6856;51.460;7.158;2023-05-07T13:42:20;100610.00;;;26.50
13570;BMP180;6856;51.460;7.158;2023-05-07T13:44:54;100611.00;;;26.40
13570;BMP180;6856;51.460;7.158;2023-05-07T13:47:28;100614.00;;;26.40
13570;BMP180;6856;51.460;7.158;2023-05-07T13:50:02;100605.00;;;26.30
13570;BMP180;6856;51.460;7.158;2023-05-07T13:52:37;100601.00;;;26.30
13570;BMP180;6856;51.460;7.158;2023-05-07T13:55:13;100613.00;;;26.30
13570;BMP180;6856;51.460;7.158;2023-05-07T13:57:48;100611.00;;;26.30
13570;BMP180;6856;51.460;7.158;2023-05-07T14:00:29;100610.00;;;26.20
13570;BMP180;6856;51.460;7.158;2023-05-07T14:03:04;100614.00;;;26.20
13570;BMP180;6856;51.460;7.158;2023-05-07T14:05:38;100613.00;;;26.20
13570;BMP180;6856;51.460;7.158;2023-05-07T14:08:12;100619.00;;;26.20
13570;BMP180;6856;51.460;7.158;2023-05-07T14:10:48;100619.00;;;26.20
13570;BMP180;6856;51.460;7.158;2023-05-07T14:13:22;100624.00;;;26.20
13570;BMP180;6856;51.460;7.158;2023-05-07T14:15:56;100623.00;;;26.20
13570;BMP180;6856;51.460;7.158;2023-05-07T14:18:29;100627.00;;;26.20
13570;BMP180;6856;51.460;7.158;2023-05-07T14:21:04;100628.00;;;26.20
13570;BMP180;6856;51.460;7.158;2023-05-07T14:23:42;100626.00;;;26.20
13570;BMP180;6856;51.460;7.158;2023-05-07T14:26:17;100632.00;;;26.20
13570;BMP180;6856;51.460;7.158;2023-05-07T14:28:51;100631.00;;;26.20
13570;BMP180;6856;51.460;7.158;2023-05-07T14:31:25;100631.00;;;26.20
13570;BMP180;6856;51.460;7.158;2023-05-07T14:33:59;100633.00;;;26.10
13570;BMP180;6856;51.460;7.158;2023-05-07T14:36:34;100632.00;;;26.10
13570;BMP180;6856;51.460;7.158;2023-05-07T14:39:07;100631.00;;;26.10
13570;BMP180;6856;51.460;7.158;2023-05-07T14:41:43;100626.00;;;26.00
13570;BMP180;6856;51.460;7.158;2023-05-07T14:44:17;100625.00;;;26.00
13570;BMP180;6856;51.460;7.158;2023-05-07T14:46:50;100624.00;;;25.90
13570;BMP180;6856;51.460;7.158;2023-05-07T14:49:24;100626.00;;;25.90
13570;BMP180;6856;51.460;7.158;2023-05-07T14:51:59;100616.00;;;25.90
13570;BMP180;6856;51.460;7.158;2023-05-07T14:54:34;100622.00;;;25.90
13570;BMP180;6856;51.460;7.158;2023-05-07T14:57:12;100622.00;;;25.80
13570;BMP180;6856;51.460;7.158;2023-05-07T14:59:48;100628.00;;;25.80